createdAt,value
2022-09-01T00:01:49.685Z,100409.13
2022-09-01T00:04:21.292Z,100396.47
2022-09-01T00:06:49.145Z,100399.41
2022-09-01T00:09:18.926Z,100385.75
2022-09-01T00:11:50.707Z,100378.38
2022-09-01T00:14:29.934Z,100380.06
2022-09-01T00:17:02.712Z,100369.00
2022-09-01T00:19:29.844Z,100379.47
2022-09-01T00:21:57.240Z,100371.09
2022-09-01T00:24:26.416Z,100372.66
2022-09-01T00:26:55.036Z,100374.28
2022-09-01T00:29:22.302Z,100375.84
2022-09-01T00:31:50.339Z,100376.19
2022-09-01T00:34:17.706Z,100362.16
2022-09-01T00:36:44.983Z,100362.44
2022-09-01T00:39:14.128Z,100360.59
2022-09-01T00:41:43.047Z,100369.59
2022-09-01T00:44:13.591Z,100361.19
2022-09-01T00:46:49.673Z,100360.06
2022-09-01T00:49:37.238Z,100366.47
2022-09-01T00:52:44.175Z,100374.34
2022-09-01T00:55:17.790Z,100390.44
2022-09-01T00:57:45.879Z,100393.06
2022-09-01T01:00:23.589Z,100391.31
2022-09-01T01:02:56.334Z,100384.53
2022-09-01T01:05:28.128Z,100379.37
2022-09-01T01:07:56.081Z,100376.75
2022-09-01T01:10:24.426Z,100380.13
2022-09-01T01:12:51.843Z,100371.69
2022-09-01T01:15:19.489Z,100365.53
2022-09-01T01:17:46.291Z,100372.31
2022-09-01T01:20:36.160Z,100371.69
2022-09-01T01:23:21.019Z,100374.97
2022-09-01T01:25:56.096Z,100372.00
2022-09-01T01:28:44.441Z,100375.91
2022-09-01T01:31:19.586Z,100375.84
2022-09-01T01:33:58.094Z,100381.19
2022-09-01T01:36:32.658Z,100375.78
2022-09-01T01:39:03.973Z,100376.75
2022-09-01T01:41:33.597Z,100371.31
2022-09-01T01:44:04.529Z,100374.78
2022-09-01T01:46:33.908Z,100366.00
2022-09-01T01:49:02.566Z,100360.91
2022-09-01T01:51:32.047Z,100366.97
2022-09-01T01:54:01.965Z,100372.25
2022-09-01T01:56:28.815Z,100366.50
2022-09-01T01:58:59.045Z,100362.34
2022-09-01T02:01:29.417Z,100367.38
2022-09-01T02:03:57.858Z,100356.34
2022-09-01T02:06:28.273Z,100367.41
2022-09-01T02:08:58.212Z,100360.66
2022-09-01T02:11:26.417Z,100362.25
2022-09-01T02:13:57.610Z,100361.53
2022-09-01T02:16:27.380Z,100364.53
2022-09-01T02:18:54.136Z,100371.94
2022-09-01T02:21:23.890Z,100368.34
2022-09-01T02:23:59.705Z,100372.72
2022-09-01T02:26:34.233Z,100368.56
2022-09-01T02:29:04.905Z,100379.06
2022-09-01T02:31:35.535Z,100369.37
2022-09-01T02:34:03.952Z,100371.19
2022-09-01T02:36:33.014Z,100375.22
2022-09-01T02:38:59.858Z,100375.91
2022-09-01T02:41:29.380Z,100378.34
2022-09-01T02:43:57.129Z,100379.47
2022-09-01T02:46:24.623Z,100384.03
2022-09-01T02:48:52.470Z,100377.00
2022-09-01T02:51:22.709Z,100383.94
2022-09-01T02:53:52.996Z,100383.37
2022-09-01T02:56:23.911Z,100386.03
2022-09-01T02:58:53.488Z,100375.72
2022-09-01T03:01:26.482Z,100386.13
2022-09-01T03:03:56.383Z,100386.94
2022-09-01T03:06:24.721Z,100386.53
2022-09-01T03:08:59.112Z,100393.16
2022-09-01T03:11:27.459Z,100381.62
2022-09-01T03:13:54.178Z,100380.78
2022-09-01T03:16:22.618Z,100382.56
2022-09-01T03:18:50.770Z,100397.66
2022-09-01T03:21:18.342Z,100384.72
2022-09-01T03:23:47.122Z,100389.09
2022-09-01T03:26:15.134Z,100388.59
2022-09-01T03:28:42.033Z,100390.91
2022-09-01T03:31:09.185Z,100391.03
2022-09-01T03:33:36.970Z,100389.72
2022-09-01T03:36:05.382Z,100396.97
2022-09-01T03:38:44.245Z,100393.25
2022-09-01T03:41:13.475Z,100391.41
2022-09-01T03:43:45.893Z,100393.31
2022-09-01T03:46:22.006Z,100389.25
2022-09-01T03:48:52.088Z,100390.91
2022-09-01T03:51:23.064Z,100399.81
2022-09-01T03:53:54.613Z,100401.03
2022-09-01T03:56:24.800Z,100404.53
2022-09-01T03:58:52.253Z,100401.25
2022-09-01T04:01:19.995Z,100403.47
2022-09-01T04:03:49.552Z,100408.12
2022-09-01T04:06:19.559Z,100411.13
2022-09-01T04:08:47.364Z,100417.78
2022-09-01T04:11:18.971Z,100422.59
2022-09-01T04:13:47.471Z,100425.00
2022-09-01T04:16:39.518Z,100436.16
2022-09-01T04:19:16.208Z,100429.12
2022-09-01T04:21:54.481Z,100427.59
2022-09-01T04:24:24.328Z,100425.53
2022-09-01T04:26:52.912Z,100430.37
2022-09-01T04:29:27.759Z,100424.63
2022-09-01T04:32:02.704Z,100428.06
2022-09-01T04:34:37.362Z,100438.19
2022-09-01T04:37:13.395Z,100426.56
2022-09-01T04:39:52.467Z,100424.66
2022-09-01T04:42:23.700Z,100419.47
2022-09-01T04:44:54.759Z,100422.22
2022-09-01T04:47:31.604Z,100427.91
2022-09-01T04:50:06.080Z,100426.72
2022-09-01T04:52:32.759Z,100421.03
2022-09-01T04:54:59.700Z,100424.91
2022-09-01T04:57:27.829Z,100415.75
2022-09-01T04:59:57.266Z,100419.91
2022-09-01T05:02:27.335Z,100422.75
2022-09-01T05:04:54.435Z,100430.56
2022-09-01T05:07:21.642Z,100430.59
2022-09-01T05:09:48.462Z,100428.13
2022-09-01T05:12:16.708Z,100427.16
2022-09-01T05:14:48.889Z,100422.72
2022-09-01T05:17:21.983Z,100422.63
2022-09-01T05:19:51.286Z,100417.34
2022-09-01T05:22:23.180Z,100418.19
2022-09-01T05:24:55.434Z,100413.53
2022-09-01T05:27:23.028Z,100419.16
2022-09-01T05:29:50.603Z,100410.84
2022-09-01T05:32:17.630Z,100413.37
2022-09-01T05:34:45.267Z,100414.38
2022-09-01T05:37:14.699Z,100416.53
2022-09-01T05:39:41.768Z,100415.31
2022-09-01T05:42:08.726Z,100419.69
2022-09-01T05:44:45.093Z,100413.66
2022-09-01T05:47:14.758Z,100419.69
2022-09-01T05:49:48.057Z,100412.41
2022-09-01T05:52:14.827Z,100418.47
2022-09-01T05:54:41.616Z,100417.56
2022-09-01T05:57:30.740Z,100426.34
2022-09-01T05:59:55.197Z,100424.78
2022-09-01T06:02:24.269Z,100426.31
2022-09-01T06:04:52.996Z,100421.09
2022-09-01T06:07:25.249Z,100418.72
2022-09-01T06:09:53.916Z,100417.81
2022-09-01T06:12:24.050Z,100419.47
2022-09-01T06:14:54.277Z,100414.72
2022-09-01T06:17:25.107Z,100414.62
2022-09-01T06:19:59.492Z,100424.41
2022-09-01T06:22:31.201Z,100419.94
2022-09-01T06:25:03.242Z,100423.94
2022-09-01T06:27:31.314Z,100418.12
2022-09-01T06:29:58.519Z,100424.78
2022-09-01T06:32:27.251Z,100418.19
2022-09-01T06:34:54.346Z,100421.59
2022-09-01T06:37:22.845Z,100422.03
2022-09-01T06:39:51.890Z,100421.16
2022-09-01T06:42:19.710Z,100426.22
2022-09-01T06:44:46.649Z,100425.84
2022-09-01T06:47:15.728Z,100425.41
2022-09-01T06:49:42.778Z,100423.75
2022-09-01T06:52:11.988Z,100426.72
2022-09-01T06:54:39.786Z,100425.25
2022-09-01T06:59:54.489Z,100418.41
2022-09-01T07:02:26.564Z,100426.94
2022-09-01T07:04:54.590Z,100430.97
2022-09-01T07:10:21.052Z,100444.63
2022-09-01T07:13:06.000Z,100432.81
2022-09-01T07:16:31.950Z,100443.28
2022-09-01T07:18:22.850Z,100437.06
2022-09-01T07:21:35.888Z,100436.59
2022-09-01T07:24:07.888Z,100436.75
2022-09-01T07:26:27.180Z,100445.62
2022-09-01T07:29:01.686Z,100449.25
2022-09-01T07:39:55.433Z,100459.44
2022-09-01T07:45:28.348Z,100462.00
2022-09-01T07:47:57.455Z,100466.81
2022-09-01T07:53:25.436Z,100467.47
2022-09-01T07:55:54.618Z,100469.25
2022-09-01T07:58:25.287Z,100476.91
2022-09-01T08:00:53.537Z,100478.78
2022-09-01T08:03:23.831Z,100486.16
2022-09-01T08:05:55.771Z,100473.91
2022-09-01T08:08:26.374Z,100485.22
2022-09-01T08:11:04.411Z,100474.13
2022-09-01T08:13:34.653Z,100475.62
2022-09-01T08:16:08.350Z,100470.34
2022-09-01T08:18:51.029Z,100475.69
2022-09-01T08:21:22.255Z,100475.72
2022-09-01T08:23:50.873Z,100475.59
2022-09-01T08:26:19.576Z,100467.63
2022-09-01T08:28:54.334Z,100456.78
2022-09-01T08:31:22.976Z,100461.25
2022-09-01T08:33:51.053Z,100459.44
2022-09-01T08:36:23.686Z,100459.78
2022-09-01T08:38:53.216Z,100467.00
2022-09-01T08:41:47.362Z,100461.81
2022-09-01T08:44:39.167Z,100463.56
2022-09-01T08:47:12.876Z,100456.53
2022-09-01T08:49:46.400Z,100465.06
2022-09-01T08:52:34.256Z,100454.94
2022-09-01T08:55:31.867Z,100457.28
2022-09-01T08:58:00.998Z,100455.25
2022-09-01T09:00:30.825Z,100459.59
2022-09-01T09:03:19.074Z,100455.88
2022-09-01T09:06:13.756Z,100449.44
2022-09-01T09:08:49.375Z,100450.34
2022-09-01T09:11:22.318Z,100449.34
2022-09-01T09:14:01.168Z,100461.41
2022-09-01T09:16:36.008Z,100455.34
2022-09-01T09:19:12.907Z,100451.59
2022-09-01T09:21:45.529Z,100455.41
2022-09-01T09:24:52.946Z,100441.91
2022-09-01T09:27:26.871Z,100452.38
2022-09-01T09:30:08.331Z,100446.87
2022-09-01T09:33:37.288Z,100443.81
2022-09-01T09:35:47.549Z,100436.94
2022-09-01T09:38:24.346Z,100437.63
2022-09-01T09:44:01.295Z,100434.56
2022-09-01T09:46:36.952Z,100430.72
2022-09-01T09:49:36.593Z,100427.56
2022-09-01T09:52:10.651Z,100431.34
2022-09-01T09:54:59.706Z,100425.31
2022-09-01T09:57:26.802Z,100430.03
2022-09-01T10:00:00.624Z,100425.84
2022-09-01T10:02:37.535Z,100423.66
2022-09-01T10:05:30.149Z,100408.72
2022-09-01T10:07:58.465Z,100421.28
2022-09-01T10:10:58.186Z,100421.97
2022-09-01T10:13:33.578Z,100413.94
2022-09-01T10:16:05.578Z,100416.16
2022-09-01T10:18:45.093Z,100420.37
2022-09-01T10:21:24.306Z,100421.03
2022-09-01T10:23:51.189Z,100413.97
2022-09-01T10:26:25.291Z,100407.31
2022-09-01T10:29:01.076Z,100410.50
2022-09-01T10:31:32.434Z,100410.81
2022-09-01T10:34:05.704Z,100409.28
2022-09-01T10:36:35.974Z,100404.28
2022-09-01T10:39:08.792Z,100404.09
2022-09-01T10:42:00.029Z,100400.22
2022-09-01T10:44:36.374Z,100399.94
2022-09-01T10:47:24.681Z,100396.22
2022-09-01T10:49:51.604Z,100398.69
2022-09-01T10:52:43.761Z,100401.91
2022-09-01T10:55:41.957Z,100400.91
2022-09-01T11:01:39.630Z,100404.56
2022-09-01T11:04:03.459Z,100396.09
2022-09-01T11:09:45.423Z,100414.06
2022-09-01T11:12:30.269Z,100414.00
2022-09-01T11:15:06.974Z,100416.16
2022-09-01T11:17:38.018Z,100417.19
2022-09-01T11:20:25.331Z,100418.12
2022-09-01T11:23:28.042Z,100413.16
2022-09-01T11:26:21.193Z,100414.94
2022-09-01T11:28:49.010Z,100417.19
2022-09-01T11:31:32.725Z,100426.22
2022-09-01T11:34:04.063Z,100420.59
2022-09-01T11:36:35.593Z,100415.91
2022-09-01T11:39:19.198Z,100412.56
2022-09-01T11:42:09.183Z,100413.63
2022-09-01T11:45:06.573Z,100409.69
2022-09-01T11:47:40.643Z,100414.09
2022-09-01T11:50:17.223Z,100424.91
2022-09-01T11:53:04.755Z,100416.84
2022-09-01T11:55:38.184Z,100413.37
2022-09-01T11:58:05.826Z,100408.25
2022-09-01T12:00:38.649Z,100403.31
2022-09-01T12:03:23.992Z,100412.69
2022-09-01T12:06:04.279Z,100412.19
2022-09-01T12:08:34.953Z,100397.03
2022-09-01T12:11:07.911Z,100399.81
2022-09-01T12:13:35.721Z,100412.88
2022-09-01T12:16:17.985Z,100406.28
2022-09-01T12:18:49.135Z,100398.31
2022-09-01T12:21:43.837Z,100401.09
2022-09-01T12:24:23.294Z,100399.53
2022-09-01T12:26:59.206Z,100399.22
2022-09-01T12:29:28.880Z,100388.00
2022-09-01T12:32:00.624Z,100398.88
2022-09-01T12:34:33.514Z,100394.41
2022-09-01T12:37:09.503Z,100391.69
2022-09-01T12:39:42.639Z,100393.34
2022-09-01T12:42:21.896Z,100389.78
2022-09-01T12:44:53.908Z,100384.50
2022-09-01T12:47:50.421Z,100378.88
2022-09-01T12:50:17.631Z,100369.19
2022-09-01T12:53:14.032Z,100374.81
2022-09-01T12:55:48.305Z,100370.34
2022-09-01T12:58:25.855Z,100373.38
2022-09-01T13:00:59.673Z,100370.78
2022-09-01T13:03:29.627Z,100380.25
2022-09-01T13:05:59.949Z,100382.25
2022-09-01T13:08:36.014Z,100367.28
2022-09-01T13:11:08.262Z,100383.09
2022-09-01T13:13:46.907Z,100372.41
2022-09-01T13:16:15.550Z,100378.22
2022-09-01T13:21:31.315Z,100381.03
2022-09-01T13:23:58.808Z,100377.25
2022-09-01T13:26:26.513Z,100379.91
2022-09-01T13:28:53.964Z,100386.78
2022-09-01T13:31:29.220Z,100382.38
2022-09-01T13:34:23.095Z,100381.47
2022-09-01T13:36:47.349Z,100389.47
2022-09-01T13:39:17.137Z,100390.38
2022-09-01T13:41:47.347Z,100383.84
2022-09-01T13:44:14.635Z,100391.75
2022-09-01T13:50:05.452Z,100389.31
2022-09-01T13:52:15.713Z,100399.41
2022-09-01T13:54:44.598Z,100401.56
2022-09-01T13:57:11.943Z,100397.28
2022-09-01T13:59:39.293Z,100394.69
2022-09-01T14:02:06.425Z,100394.53
2022-09-01T14:04:33.281Z,100393.97
2022-09-01T14:07:00.233Z,100392.94
2022-09-01T14:09:27.197Z,100398.31
2022-09-01T14:11:55.803Z,100399.66
2022-09-01T14:14:23.155Z,100399.41
2022-09-01T14:16:49.970Z,100397.84
2022-09-01T14:19:17.033Z,100403.59
2022-09-01T14:21:45.405Z,100404.41
2022-09-01T14:24:13.265Z,100396.00
2022-09-01T14:26:41.775Z,100394.16
2022-09-01T14:29:08.676Z,100399.87
2022-09-01T14:31:37.944Z,100393.53
2022-09-01T14:34:06.931Z,100398.31
2022-09-01T14:36:33.772Z,100402.59
2022-09-01T14:39:00.850Z,100391.72
2022-09-01T14:41:27.624Z,100392.28
2022-09-01T14:44:02.801Z,100397.47
2022-09-01T14:46:31.205Z,100397.06
2022-09-01T14:48:58.062Z,100400.78
2022-09-01T14:52:10.209Z,100384.97
2022-09-01T14:54:16.045Z,100389.91
2022-09-01T14:57:27.187Z,100385.16
2022-09-01T14:59:29.622Z,100393.37
2022-09-01T15:01:56.486Z,100392.44
2022-09-01T15:04:23.289Z,100387.47
2022-09-01T15:06:50.300Z,100388.00
2022-09-01T15:09:19.146Z,100395.06
2022-09-01T15:11:46.832Z,100400.78
2022-09-01T15:14:13.661Z,100393.78
2022-09-01T15:16:41.819Z,100396.91
2022-09-01T15:19:11.101Z,100395.88
2022-09-01T15:21:40.474Z,100397.81
2022-09-01T15:24:08.847Z,100399.34
2022-09-01T15:26:37.416Z,100389.91
2022-09-01T15:29:05.055Z,100392.28
2022-09-01T15:31:33.729Z,100390.13
2022-09-01T15:34:03.411Z,100395.00
2022-09-01T15:36:31.413Z,100396.59
2022-09-01T15:38:59.076Z,100398.75
2022-09-01T15:41:28.792Z,100392.50
2022-09-01T15:43:56.887Z,100397.41
2022-09-01T15:46:32.110Z,100395.28
2022-09-01T15:49:00.702Z,100390.06
2022-09-01T15:51:37.589Z,100392.00
2022-09-01T15:54:16.554Z,100393.47
2022-09-01T15:56:43.621Z,100390.31
2022-09-01T15:59:11.791Z,100388.44
2022-09-01T16:01:42.904Z,100395.66
2022-09-01T16:04:17.796Z,100391.03
2022-09-01T16:06:46.374Z,100398.31
2022-09-01T16:09:13.877Z,100381.19
2022-09-01T16:11:43.542Z,100382.94
2022-09-01T16:14:10.649Z,100382.41
2022-09-01T16:17:09.599Z,100386.84
2022-09-01T16:19:51.956Z,100378.84
2022-09-01T16:22:28.349Z,100375.41
2022-09-01T16:25:01.024Z,100376.81
2022-09-01T16:27:44.472Z,100376.44
2022-09-01T16:30:14.497Z,100369.22
2022-09-01T16:32:45.919Z,100377.06
2022-09-01T16:35:14.118Z,100376.84
2022-09-01T16:37:58.364Z,100370.88
2022-09-01T16:40:39.730Z,100367.91
2022-09-01T16:43:15.647Z,100371.94
2022-09-01T16:45:51.839Z,100381.81
2022-09-01T16:48:21.362Z,100375.81
2022-09-01T16:50:55.376Z,100382.06
2022-09-01T16:53:48.391Z,100377.84
2022-09-01T16:56:24.057Z,100372.19
2022-09-01T16:59:15.058Z,100380.41
2022-09-01T17:01:52.508Z,100373.88
2022-09-01T17:04:19.326Z,100375.03
2022-09-01T17:06:57.386Z,100372.94
2022-09-01T17:09:33.754Z,100369.84
2022-09-01T17:12:18.155Z,100371.03
2022-09-01T17:14:59.751Z,100382.25
2022-09-01T17:17:41.758Z,100374.56
2022-09-01T17:20:08.986Z,100378.88
2022-09-01T17:22:37.761Z,100383.63
2022-09-01T17:25:13.661Z,100388.66
2022-09-01T17:27:58.380Z,100378.34
2022-09-01T17:30:25.562Z,100386.13
2022-09-01T17:33:17.176Z,100378.47
2022-09-01T17:36:10.832Z,100389.87
2022-09-01T17:38:54.317Z,100387.22
2022-09-01T17:42:11.694Z,100386.81
2022-09-01T17:44:55.604Z,100393.22
2022-09-01T17:47:26.615Z,100391.12
2022-09-01T17:50:18.546Z,100393.53
2022-09-01T17:53:11.133Z,100398.97
2022-09-01T17:55:54.839Z,100391.25
2022-09-01T17:58:59.924Z,100403.13
2022-09-01T18:01:45.661Z,100400.56
2022-09-01T18:04:38.769Z,100412.41
2022-09-01T18:07:42.250Z,100407.50
2022-09-01T18:10:17.833Z,100420.50
2022-09-01T18:12:46.954Z,100429.59
2022-09-01T18:15:24.504Z,100428.59
2022-09-01T18:17:55.541Z,100429.78
2022-09-01T18:20:31.528Z,100422.25
2022-09-01T18:23:04.716Z,100431.47
2022-09-01T18:25:59.934Z,100437.19
2022-09-01T18:28:26.784Z,100440.19
2022-09-01T18:30:59.674Z,100440.97
2022-09-01T18:33:26.458Z,100444.13
2022-09-01T18:36:11.515Z,100441.72
2022-09-01T18:38:45.177Z,100435.53
2022-09-01T18:42:05.542Z,100441.78
2022-09-01T18:44:44.377Z,100433.78
2022-09-01T18:47:17.363Z,100438.72
2022-09-01T18:50:00.626Z,100444.28
2022-09-01T18:52:33.421Z,100439.34
2022-09-01T18:55:02.695Z,100449.09
2022-09-01T18:57:38.375Z,100447.09
2022-09-01T19:00:19.291Z,100452.28
2022-09-01T19:02:59.648Z,100452.50
2022-09-01T19:05:45.912Z,100451.69
2022-09-01T19:08:37.880Z,100456.47
2022-09-01T19:11:26.509Z,100458.97
2022-09-01T19:14:11.584Z,100456.38
2022-09-01T19:16:44.538Z,100461.72
2022-09-01T19:19:11.644Z,100456.28
2022-09-01T19:21:39.439Z,100469.19
2022-09-01T19:24:13.406Z,100463.13
2022-09-01T19:26:46.150Z,100471.25
2022-09-01T19:29:19.579Z,100465.41
2022-09-01T19:32:02.078Z,100466.34
2022-09-01T19:34:46.118Z,100473.59
2022-09-01T19:37:13.278Z,100471.59
2022-09-01T19:39:44.767Z,100470.06
2022-09-01T19:42:20.353Z,100467.87
2022-09-01T19:45:24.447Z,100474.72
2022-09-01T19:48:15.270Z,100477.75
2022-09-01T19:51:03.563Z,100477.34
2022-09-01T19:53:44.562Z,100472.84
2022-09-01T19:56:15.149Z,100470.94
2022-09-01T19:58:51.771Z,100470.22
2022-09-01T20:01:32.680Z,100477.81
2022-09-01T20:04:04.230Z,100474.03
2022-09-01T20:06:35.272Z,100471.44
2022-09-01T20:09:16.453Z,100477.34
2022-09-01T20:12:05.795Z,100476.97
2022-09-01T20:14:56.848Z,100486.97
2022-09-01T20:17:29.454Z,100482.75
2022-09-01T20:20:21.920Z,100477.53
2022-09-01T20:23:07.454Z,100486.50
2022-09-01T20:25:58.959Z,100483.22
2022-09-01T20:28:31.361Z,100487.56
2022-09-01T20:31:12.451Z,100488.03
2022-09-01T20:33:47.149Z,100488.37
2022-09-01T20:36:45.150Z,100495.72
2022-09-01T20:39:47.156Z,100496.66
2022-09-01T20:42:21.395Z,100492.09
2022-09-01T20:44:55.444Z,100489.34
2022-09-01T20:47:27.930Z,100484.13
2022-09-01T20:49:57.316Z,100482.47
2022-09-01T20:52:52.056Z,100488.34
2022-09-01T20:55:25.177Z,100494.00
2022-09-01T20:58:11.426Z,100493.28
2022-09-01T21:01:17.651Z,100493.75
2022-09-01T21:04:09.399Z,100497.44
2022-09-01T21:06:49.156Z,100500.38
2022-09-01T21:09:28.585Z,100501.03
2022-09-01T21:12:17.826Z,100504.87
2022-09-01T21:14:57.222Z,100504.56
2022-09-01T21:17:49.763Z,100502.44
2022-09-01T21:20:38.586Z,100499.88
2022-09-01T21:23:06.811Z,100494.31
2022-09-01T21:25:34.014Z,100502.03
2022-09-01T21:28:04.591Z,100502.41
2022-09-01T21:30:34.198Z,100504.91
2022-09-01T21:33:01.645Z,100504.16
2022-09-01T21:35:28.745Z,100507.13
2022-09-01T21:37:55.517Z,100512.06
2022-09-01T21:40:24.530Z,100508.31
2022-09-01T21:42:54.594Z,100501.41
2022-09-01T21:45:22.422Z,100509.16
2022-09-01T21:47:50.910Z,100500.41
2022-09-01T21:50:20.549Z,100495.78
2022-09-01T21:52:47.427Z,100502.22
2022-09-01T21:55:17.483Z,100499.31
2022-09-01T21:57:47.725Z,100494.75
2022-09-01T22:00:21.822Z,100495.97
2022-09-01T22:02:48.887Z,100495.94
2022-09-01T22:05:15.720Z,100489.16
2022-09-01T22:07:45.606Z,100489.44
2022-09-01T22:10:16.520Z,100492.03
2022-09-01T22:12:45.936Z,100492.31
2022-09-01T22:15:16.236Z,100497.53
2022-09-01T22:17:43.327Z,100501.84
2022-09-01T22:20:12.257Z,100494.78
2022-09-01T22:22:39.545Z,100490.28
2022-09-01T22:25:09.442Z,100490.91
2022-09-01T22:27:36.324Z,100497.50
2022-09-01T22:30:05.643Z,100490.28
2022-09-01T22:32:36.297Z,100493.28
2022-09-01T22:35:05.340Z,100485.53
2022-09-01T22:37:32.142Z,100485.84
2022-09-01T22:39:58.984Z,100490.09
2022-09-01T22:42:25.811Z,100484.81
2022-09-01T22:44:52.668Z,100487.19
2022-09-01T22:47:19.492Z,100480.69
2022-09-01T22:49:46.241Z,100485.84
2022-09-01T22:52:13.949Z,100485.97
2022-09-01T22:54:40.787Z,100481.78
2022-09-01T22:57:07.671Z,100489.19
2022-09-01T22:59:34.499Z,100485.13
2022-09-01T23:02:02.013Z,100483.81
2022-09-01T23:04:31.514Z,100482.56
2022-09-01T23:06:58.338Z,100478.56
2022-09-01T23:09:25.299Z,100480.31
2022-09-01T23:11:52.358Z,100476.00
2022-09-01T23:14:19.187Z,100486.69
2022-09-01T23:16:47.310Z,100488.72
2022-09-01T23:19:22.180Z,100486.88
2022-09-01T23:21:49.965Z,100486.28
2022-09-01T23:24:19.743Z,100490.81
2022-09-01T23:26:47.539Z,100488.28
2022-09-01T23:29:14.558Z,100488.13
2022-09-01T23:31:41.893Z,100491.16
2022-09-01T23:34:08.893Z,100491.53
2022-09-01T23:36:36.868Z,100492.50
2022-09-01T23:39:05.179Z,100486.88
2022-09-01T23:41:34.802Z,100483.53
2022-09-01T23:44:03.570Z,100486.31
2022-09-01T23:46:37.273Z,100477.13
2022-09-01T23:49:05.565Z,100485.53
2022-09-01T23:51:32.395Z,100480.19
2022-09-01T23:53:59.534Z,100481.56
2022-09-01T23:56:28.504Z,100478.25
2022-09-01T23:58:55.857Z,100477.50
